createdAt,value
2022-08-17T00:00:34.286Z,86.00
2022-08-17T00:03:10.063Z,85.96
2022-08-17T00:05:43.695Z,86.07
2022-08-17T00:08:12.321Z,86.18
2022-08-17T00:10:40.918Z,86.30
2022-08-17T00:13:10.410Z,86.88
2022-08-17T00:15:39.093Z,87.21
2022-08-17T00:19:01.315Z,87.47
2022-08-17T00:20:58.383Z,87.50
2022-08-17T00:23:26.968Z,87.64
2022-08-17T00:25:55.790Z,88.03
2022-08-17T00:28:24.571Z,87.93
2022-08-17T00:30:54.412Z,88.32
2022-08-17T00:33:26.830Z,88.37
2022-08-17T00:35:56.183Z,88.54
2022-08-17T00:38:25.244Z,89.22
2022-08-17T00:40:55.658Z,89.68
2022-08-17T00:43:31.678Z,89.67
2022-08-17T00:46:00.900Z,89.82
2022-08-17T00:48:31.089Z,89.97
2022-08-17T00:51:06.331Z,90.13
2022-08-17T00:53:36.015Z,90.13
2022-08-17T00:56:07.128Z,90.19
2022-08-17T00:58:36.469Z,90.80
2022-08-17T01:01:06.093Z,90.60
2022-08-17T01:03:36.468Z,90.08
2022-08-17T01:06:06.097Z,90.01
2022-08-17T01:08:34.654Z,89.83
2022-08-17T01:11:05.369Z,89.38
2022-08-17T01:13:40.995Z,89.79
2022-08-17T01:16:18.952Z,90.05
2022-08-17T01:18:51.262Z,90.46
2022-08-17T01:21:25.270Z,90.74
2022-08-17T01:23:54.804Z,90.84
2022-08-17T01:26:23.140Z,90.77
2022-08-17T01:28:54.621Z,90.99
2022-08-17T01:31:25.962Z,92.09
2022-08-17T01:33:54.613Z,93.03
2022-08-17T01:36:22.847Z,92.93
2022-08-17T01:38:51.141Z,92.75
2022-08-17T01:41:23.481Z,92.90
2022-08-17T01:43:54.705Z,92.23
2022-08-17T01:46:24.965Z,92.34
2022-08-17T01:48:53.153Z,92.29
2022-08-17T01:51:22.175Z,91.96
2022-08-17T01:53:53.673Z,92.09
2022-08-17T01:56:27.026Z,91.61
2022-08-17T01:58:55.462Z,91.71
2022-08-17T02:01:26.611Z,91.68
2022-08-17T02:04:00.626Z,91.95
2022-08-17T02:06:31.260Z,92.00
2022-08-17T02:09:03.052Z,91.73
2022-08-17T02:11:34.751Z,91.84
2022-08-17T02:14:04.040Z,92.18
2022-08-17T02:16:36.838Z,92.01
2022-08-17T02:19:13.551Z,93.19
2022-08-17T02:21:42.216Z,93.72
2022-08-17T02:24:12.982Z,93.43
2022-08-17T02:26:42.806Z,93.45
2022-08-17T02:29:11.022Z,93.33
2022-08-17T02:31:39.211Z,93.10
2022-08-17T02:34:07.445Z,93.05
2022-08-17T02:36:36.046Z,92.84
2022-08-17T02:39:05.648Z,92.41
2022-08-17T02:41:34.008Z,92.34
2022-08-17T02:44:03.499Z,92.13
2022-08-17T02:46:32.368Z,91.86
2022-08-17T02:49:00.719Z,91.87
2022-08-17T02:51:29.826Z,92.77
2022-08-17T02:54:02.183Z,93.05
2022-08-17T02:56:47.147Z,93.24
2022-08-17T02:59:16.882Z,93.04
2022-08-17T03:01:45.103Z,93.18
2022-08-17T03:04:13.338Z,92.90
2022-08-17T03:06:41.441Z,93.70
2022-08-17T03:09:09.865Z,93.72
2022-08-17T03:11:38.003Z,94.25
2022-08-17T03:14:08.910Z,93.56
2022-08-17T03:16:38.402Z,94.11
2022-08-17T03:19:07.567Z,94.05
2022-08-17T03:21:35.755Z,93.86
2022-08-17T03:24:09.028Z,94.19
2022-08-17T03:26:37.748Z,93.72
2022-08-17T03:29:05.876Z,93.32
2022-08-17T03:31:34.041Z,92.95
2022-08-17T03:34:06.632Z,93.01
2022-08-17T03:36:36.110Z,93.46
2022-08-17T03:39:04.714Z,93.40
2022-08-17T03:41:32.932Z,93.47
2022-08-17T03:44:01.159Z,93.02
2022-08-17T03:46:46.916Z,93.15
2022-08-17T03:49:34.781Z,93.20
2022-08-17T03:52:20.512Z,93.25
2022-08-17T03:55:06.379Z,93.38
2022-08-17T03:57:34.539Z,93.02
2022-08-17T04:00:02.759Z,93.05
2022-08-17T04:02:33.120Z,93.66
2022-08-17T04:05:02.876Z,93.09
2022-08-17T04:07:32.351Z,93.49
2022-08-17T04:10:05.016Z,93.89
2022-08-17T04:12:44.696Z,94.46
2022-08-17T04:15:13.486Z,95.64
2022-08-17T04:17:41.911Z,96.01
2022-08-17T04:20:12.567Z,95.17
2022-08-17T04:22:40.724Z,94.98
2022-08-17T04:25:16.590Z,94.99
2022-08-17T04:27:44.861Z,94.52
2022-08-17T04:30:14.039Z,94.67
2022-08-17T04:33:04.769Z,95.46
2022-08-17T04:35:37.980Z,94.76
2022-08-17T04:38:06.637Z,94.44
2022-08-17T04:40:52.386Z,94.95
2022-08-17T04:43:22.833Z,95.39
2022-08-17T04:45:56.363Z,94.82
2022-08-17T04:48:33.400Z,94.65
2022-08-17T04:51:09.899Z,94.34
2022-08-17T04:53:39.197Z,94.67
2022-08-17T04:56:07.873Z,94.43
2022-08-17T04:58:40.208Z,94.49
2022-08-17T05:01:08.848Z,94.10
2022-08-17T05:03:37.088Z,94.89
2022-08-17T05:06:07.112Z,94.68
2022-08-17T05:08:35.600Z,94.71
2022-08-17T05:11:03.878Z,94.10
2022-08-17T05:13:32.212Z,94.43
2022-08-17T05:16:01.774Z,94.40
2022-08-17T05:18:30.853Z,94.52
2022-08-17T05:20:59.058Z,94.18
2022-08-17T05:23:38.485Z,94.24
2022-08-17T05:26:11.723Z,93.49
2022-08-17T05:28:54.321Z,93.25
2022-08-17T05:31:22.517Z,92.39
2022-08-17T05:33:50.696Z,92.11
2022-08-17T05:36:42.154Z,92.64
2022-08-17T05:39:08.508Z,92.10
2022-08-17T05:41:46.350Z,91.36
2022-08-17T05:44:14.596Z,90.53
2022-08-17T05:46:45.300Z,89.77
2022-08-17T05:49:15.880Z,89.07
2022-08-17T05:52:10.055Z,87.93
2022-08-17T05:54:50.258Z,87.19
2022-08-17T05:57:30.887Z,87.90
2022-08-17T06:00:10.017Z,87.86
2022-08-17T06:02:47.873Z,87.25
2022-08-17T06:05:36.389Z,87.93
2022-08-17T06:08:12.734Z,88.53
2022-08-17T06:10:46.702Z,88.15
2022-08-17T06:13:23.693Z,87.42
2022-08-17T06:15:58.378Z,86.60
2022-08-17T06:18:31.087Z,86.12
2022-08-17T06:21:02.311Z,85.99
2022-08-17T06:23:36.735Z,84.92
2022-08-17T06:26:13.514Z,86.02
2022-08-17T06:28:46.272Z,85.01
2022-08-17T06:31:27.506Z,84.43
2022-08-17T06:33:55.950Z,83.99
2022-08-17T06:36:43.139Z,84.81
2022-08-17T06:39:30.851Z,84.43
2022-08-17T06:42:09.541Z,83.70
2022-08-17T06:45:03.470Z,82.18
2022-08-17T06:47:36.753Z,80.68
2022-08-17T06:50:11.803Z,80.73
2022-08-17T06:52:47.581Z,80.30
2022-08-17T06:55:19.485Z,79.95
2022-08-17T06:57:51.688Z,79.79
2022-08-17T07:00:26.116Z,80.16
2022-08-17T07:02:58.225Z,78.53
2022-08-17T07:05:28.296Z,77.77
2022-08-17T07:08:04.868Z,76.09
2022-08-17T07:10:38.516Z,76.02
2022-08-17T07:13:29.418Z,74.31
2022-08-17T07:16:04.771Z,73.04
2022-08-17T07:18:36.654Z,72.50
2022-08-17T07:21:15.519Z,73.31
2022-08-17T07:23:57.872Z,74.14
2022-08-17T07:26:26.094Z,73.93
2022-08-17T07:28:56.226Z,73.86
2022-08-17T07:31:26.392Z,72.71
2022-08-17T07:34:08.486Z,67.63
2022-08-17T07:36:36.648Z,65.55
2022-08-17T07:39:06.014Z,64.13
2022-08-17T07:41:53.168Z,60.13
2022-08-17T07:44:28.649Z,60.55
2022-08-17T07:47:15.230Z,57.63
2022-08-17T07:49:46.160Z,56.37
2022-08-17T07:52:50.553Z,51.54
2022-08-17T07:55:27.968Z,50.26
2022-08-17T07:57:57.446Z,50.28
2022-08-17T08:00:32.630Z,50.59
2022-08-17T08:03:06.394Z,50.56
2022-08-17T08:05:49.953Z,51.59
2022-08-17T08:08:28.052Z,51.24
2022-08-17T08:11:02.762Z,50.11
2022-08-17T08:13:32.818Z,50.61
2022-08-17T08:16:25.922Z,49.57
2022-08-17T08:18:57.951Z,49.16
2022-08-17T08:21:37.834Z,48.62
2022-08-17T08:24:19.607Z,49.30
2022-08-17T08:26:54.016Z,49.23
2022-08-17T08:29:28.441Z,49.87
2022-08-17T08:32:04.973Z,48.05
2022-08-17T08:34:58.564Z,48.32
2022-08-17T08:37:40.501Z,48.79
2022-08-17T08:40:21.562Z,49.17
2022-08-17T08:42:56.588Z,48.74
2022-08-17T08:45:28.376Z,47.92
2022-08-17T08:48:22.883Z,49.01
2022-08-17T08:51:01.714Z,47.36
2022-08-17T08:53:37.601Z,48.62
2022-08-17T08:56:08.864Z,47.96
2022-08-17T08:58:50.726Z,48.53
2022-08-17T09:01:25.123Z,47.29
2022-08-17T09:04:20.010Z,46.58
2022-08-17T09:06:59.844Z,46.37
2022-08-17T09:09:37.267Z,46.85
2022-08-17T09:12:10.732Z,46.56
2022-08-17T09:14:46.610Z,47.29
2022-08-17T09:17:18.451Z,46.14
2022-08-17T09:19:52.042Z,46.08
2022-08-17T09:22:31.325Z,45.94
2022-08-17T09:25:08.096Z,44.68
2022-08-17T09:27:46.328Z,44.24
2022-08-17T09:30:15.320Z,43.23
2022-08-17T09:32:47.105Z,43.45
2022-08-17T09:35:19.921Z,42.62
2022-08-17T09:37:54.954Z,41.26
2022-08-17T09:40:26.730Z,40.31
2022-08-17T09:42:57.826Z,41.76
2022-08-17T09:45:32.212Z,40.49
2022-08-17T09:48:05.029Z,39.41
2022-08-17T09:51:03.183Z,39.06
2022-08-17T09:53:31.665Z,38.90
2022-08-17T09:56:08.360Z,37.85
2022-08-17T09:58:50.467Z,39.56
2022-08-17T10:01:31.899Z,38.75
2022-08-17T10:04:07.693Z,38.60
2022-08-17T10:06:47.704Z,36.53
2022-08-17T10:09:18.890Z,36.64
2022-08-17T10:12:09.357Z,37.06
2022-08-17T10:14:44.006Z,37.67
2022-08-17T10:17:20.995Z,36.58
2022-08-17T10:19:58.655Z,35.85
2022-08-17T10:22:53.078Z,35.00
2022-08-17T10:25:54.531Z,36.07
2022-08-17T10:28:29.869Z,34.74
2022-08-17T10:31:30.758Z,33.38
2022-08-17T10:34:08.207Z,33.41
2022-08-17T10:36:46.133Z,34.02
2022-08-17T10:39:24.866Z,33.54
2022-08-17T10:41:57.054Z,34.62
2022-08-17T10:44:38.828Z,34.68
2022-08-17T10:47:11.689Z,33.36
2022-08-17T10:49:47.568Z,33.47
2022-08-17T10:52:52.367Z,34.82
2022-08-17T10:55:22.212Z,34.27
2022-08-17T10:57:51.426Z,33.23
2022-08-17T11:01:05.788Z,33.61
2022-08-17T11:03:34.045Z,31.76
2022-08-17T11:06:12.744Z,32.68
2022-08-17T11:09:06.506Z,33.62
2022-08-17T11:11:47.947Z,33.86
2022-08-17T11:14:34.906Z,33.62
2022-08-17T11:17:42.223Z,34.40
2022-08-17T11:20:31.084Z,34.46
2022-08-17T11:23:21.607Z,33.11
2022-08-17T11:25:53.644Z,34.08
2022-08-17T11:28:26.425Z,33.02
2022-08-17T11:30:57.193Z,33.02
2022-08-17T11:33:53.683Z,33.17
2022-08-17T11:36:31.737Z,32.36
2022-08-17T11:39:04.584Z,32.75
2022-08-17T11:41:39.799Z,32.98
2022-08-17T11:44:22.038Z,32.53
2022-08-17T11:47:23.415Z,29.26
2022-08-17T11:50:25.799Z,31.06
2022-08-17T11:52:56.104Z,31.96
2022-08-17T11:56:01.822Z,31.55
2022-08-17T11:58:38.759Z,32.08
2022-08-17T12:01:09.424Z,31.90
2022-08-17T12:03:55.583Z,31.35
2022-08-17T12:06:43.172Z,31.20
2022-08-17T12:09:15.824Z,30.92
2022-08-17T12:11:58.665Z,30.52
2022-08-17T12:15:08.085Z,30.26
2022-08-17T12:17:40.502Z,30.09
2022-08-17T12:20:24.300Z,31.07
2022-08-17T12:23:00.939Z,30.47
2022-08-17T12:25:35.242Z,30.66
2022-08-17T12:28:06.540Z,29.71
2022-08-17T12:30:36.617Z,29.28
2022-08-17T12:33:13.730Z,30.22
2022-08-17T12:35:59.731Z,29.23
2022-08-17T12:38:32.369Z,29.81
2022-08-17T12:41:22.487Z,29.72
2022-08-17T12:44:01.642Z,29.40
2022-08-17T12:46:33.767Z,29.32
2022-08-17T12:49:24.614Z,28.92
2022-08-17T12:51:56.539Z,28.38
2022-08-17T12:54:31.424Z,29.14
2022-08-17T12:57:03.240Z,29.68
2022-08-17T12:59:33.163Z,29.31
2022-08-17T13:02:02.254Z,29.38
2022-08-17T13:04:32.816Z,29.19
2022-08-17T13:07:00.999Z,28.86
2022-08-17T13:09:35.888Z,28.21
2022-08-17T13:12:09.327Z,28.51
2022-08-17T13:14:37.622Z,28.31
2022-08-17T13:17:11.060Z,27.30
2022-08-17T13:19:49.833Z,26.73
2022-08-17T13:22:21.384Z,27.55
2022-08-17T13:24:54.153Z,27.63
2022-08-17T13:27:24.375Z,27.74
2022-08-17T13:29:55.892Z,26.21
2022-08-17T13:32:34.366Z,26.75
2022-08-17T13:35:43.069Z,26.06
2022-08-17T13:38:15.714Z,26.01
2022-08-17T13:40:51.947Z,26.93
2022-08-17T13:43:44.619Z,27.54
2022-08-17T13:46:19.905Z,25.92
2022-08-17T13:48:58.345Z,26.73
2022-08-17T13:51:31.223Z,26.85
2022-08-17T13:54:05.824Z,25.80
2022-08-17T13:56:56.267Z,26.13
2022-08-17T13:59:52.503Z,26.35
2022-08-17T14:02:22.237Z,27.50
2022-08-17T14:04:50.490Z,27.40
2022-08-17T14:07:29.426Z,27.36
2022-08-17T14:10:00.702Z,27.10
2022-08-17T14:12:30.295Z,26.11
2022-08-17T14:14:59.503Z,25.54
2022-08-17T14:17:36.346Z,26.73
2022-08-17T14:20:09.510Z,26.41
2022-08-17T14:22:40.816Z,26.94
2022-08-17T14:25:10.880Z,27.30
2022-08-17T14:27:47.132Z,27.44
2022-08-17T14:30:22.218Z,28.15
2022-08-17T14:32:52.079Z,28.24
2022-08-17T14:35:23.289Z,27.30
2022-08-17T14:37:53.257Z,26.42
2022-08-17T14:40:24.972Z,26.42
2022-08-17T14:42:55.243Z,26.49
2022-08-17T14:45:31.469Z,26.98
2022-08-17T14:48:02.779Z,26.45
2022-08-17T14:50:31.810Z,27.45
2022-08-17T14:53:03.829Z,28.21
2022-08-17T14:55:32.547Z,27.27
2022-08-17T14:58:00.998Z,27.53
2022-08-17T15:00:29.181Z,26.46
2022-08-17T15:03:00.262Z,26.03
2022-08-17T15:05:37.903Z,27.21
2022-08-17T15:08:08.820Z,27.63
2022-08-17T15:10:37.713Z,27.02
2022-08-17T15:13:11.862Z,26.49
2022-08-17T15:15:40.899Z,26.65
2022-08-17T15:18:09.241Z,26.41
2022-08-17T15:20:37.470Z,26.32
2022-08-17T15:23:07.341Z,26.23
2022-08-17T15:25:35.694Z,25.22
2022-08-17T15:28:04.067Z,25.75
2022-08-17T15:30:32.349Z,25.96
2022-08-17T15:33:01.935Z,26.37
2022-08-17T15:35:33.721Z,26.54
2022-08-17T15:38:11.983Z,26.23
2022-08-17T15:40:45.443Z,25.68
2022-08-17T15:43:15.664Z,26.33
2022-08-17T15:45:44.519Z,26.75
2022-08-17T15:48:25.240Z,27.17
2022-08-17T15:50:53.693Z,27.30
2022-08-17T15:53:21.836Z,27.02
2022-08-17T15:55:51.648Z,26.83
2022-08-17T15:58:20.864Z,27.10
2022-08-17T16:01:18.183Z,27.23
2022-08-17T16:04:05.037Z,27.33
2022-08-17T16:06:35.451Z,27.23
2022-08-17T16:09:03.671Z,28.02
2022-08-17T16:11:33.166Z,28.92
2022-08-17T16:14:01.314Z,30.97
2022-08-17T16:16:31.460Z,31.89
2022-08-17T16:18:59.837Z,30.41
2022-08-17T16:21:31.247Z,31.44
2022-08-17T16:24:13.088Z,31.48
2022-08-17T16:26:43.814Z,30.85
2022-08-17T16:29:12.113Z,30.44
2022-08-17T16:31:41.911Z,29.26
2022-08-17T16:34:17.115Z,28.87
2022-08-17T16:36:53.723Z,29.05
2022-08-17T16:39:24.126Z,28.81
2022-08-17T16:41:53.554Z,29.06
2022-08-17T16:44:22.886Z,29.59
2022-08-17T16:46:51.557Z,30.54
2022-08-17T16:49:36.216Z,30.13
2022-08-17T16:52:10.054Z,30.05
2022-08-17T16:54:39.384Z,29.18
2022-08-17T16:57:08.899Z,30.11
2022-08-17T16:59:41.878Z,30.72
2022-08-17T17:02:14.148Z,30.52
2022-08-17T17:04:45.879Z,30.61
2022-08-17T17:07:25.818Z,30.94
2022-08-17T17:09:55.498Z,31.89
2022-08-17T17:13:01.229Z,31.59
2022-08-17T17:15:21.554Z,33.46
2022-08-17T17:17:52.143Z,34.93
2022-08-17T17:20:23.761Z,35.39
2022-08-17T17:23:02.295Z,37.10
2022-08-17T17:25:34.540Z,37.44
2022-08-17T17:28:09.850Z,39.30
2022-08-17T17:30:43.277Z,42.66
2022-08-17T17:33:13.859Z,45.67
2022-08-17T17:35:45.794Z,47.23
2022-08-17T17:38:18.778Z,48.56
2022-08-17T17:40:50.215Z,49.58
2022-08-17T17:43:38.347Z,48.77
2022-08-17T17:46:26.513Z,50.14
2022-08-17T17:48:57.219Z,49.46
2022-08-17T17:52:03.601Z,50.43
2022-08-17T17:54:32.476Z,50.80
2022-08-17T17:57:05.439Z,50.88
2022-08-17T17:59:44.090Z,53.94
2022-08-17T18:02:51.305Z,54.50
2022-08-17T18:05:34.508Z,55.10
2022-08-17T18:08:12.768Z,55.35
2022-08-17T18:10:49.160Z,56.17
2022-08-17T18:13:26.681Z,56.86
2022-08-17T18:16:00.856Z,55.34
2022-08-17T18:18:38.751Z,55.74
2022-08-17T18:21:16.980Z,55.31
2022-08-17T18:23:48.277Z,56.09
2022-08-17T18:26:37.088Z,56.58
2022-08-17T18:29:15.201Z,57.76
2022-08-17T18:31:44.925Z,59.09
2022-08-17T18:37:19.422Z,59.58
2022-08-17T18:39:47.912Z,59.32
2022-08-17T18:42:25.997Z,59.06
2022-08-17T18:44:55.483Z,58.81
2022-08-17T18:47:27.318Z,59.21
2022-08-17T18:50:02.591Z,59.77
2022-08-17T18:52:33.090Z,60.08
2022-08-17T18:55:09.770Z,60.56
2022-08-17T18:57:40.339Z,60.68
2022-08-17T19:00:17.713Z,61.91
2022-08-17T19:02:58.494Z,62.19
2022-08-17T19:05:32.561Z,62.01
2022-08-17T19:08:20.431Z,62.12
2022-08-17T19:10:50.509Z,61.79
2022-08-17T19:13:23.857Z,61.70
2022-08-17T19:16:14.458Z,61.59
2022-08-17T19:18:46.177Z,62.55
2022-08-17T19:21:20.191Z,62.33
2022-08-17T19:23:53.989Z,62.73
2022-08-17T19:26:53.690Z,63.36
2022-08-17T19:29:16.693Z,62.69
2022-08-17T19:31:47.998Z,63.76
2022-08-17T19:34:29.862Z,64.03
2022-08-17T19:37:04.753Z,63.46
2022-08-17T19:39:37.964Z,63.66
2022-08-17T19:42:12.725Z,64.90
2022-08-17T19:44:48.370Z,65.04
2022-08-17T19:47:36.679Z,65.05
2022-08-17T19:50:15.291Z,65.30
2022-08-17T19:52:48.648Z,65.36
2022-08-17T19:55:30.838Z,65.39
2022-08-17T19:58:07.085Z,64.67
2022-08-17T20:00:37.445Z,64.21
2022-08-17T20:03:16.316Z,64.03
2022-08-17T20:06:11.464Z,64.75
2022-08-17T20:08:44.172Z,65.26
2022-08-17T20:11:16.972Z,66.26
2022-08-17T20:13:49.722Z,66.75
2022-08-17T20:16:18.535Z,66.84
2022-08-17T20:18:51.510Z,67.54
2022-08-17T20:21:24.929Z,67.84
2022-08-17T20:23:55.419Z,68.02
2022-08-17T20:26:27.656Z,68.33
2022-08-17T20:29:37.763Z,68.87
2022-08-17T20:32:25.672Z,67.92
2022-08-17T20:35:09.390Z,68.02
2022-08-17T20:37:43.153Z,68.43
2022-08-17T20:40:36.460Z,68.49
2022-08-17T20:43:43.872Z,68.54
2022-08-17T20:46:31.693Z,68.14
2022-08-17T20:49:14.725Z,67.70
2022-08-17T20:52:01.528Z,68.13
2022-08-17T20:54:46.151Z,67.63
2022-08-17T20:57:49.074Z,67.63
2022-08-17T21:00:42.759Z,68.02
2022-08-17T21:03:51.033Z,67.89
2022-08-17T21:06:23.640Z,67.70
2022-08-17T21:08:55.136Z,67.51
2022-08-17T21:12:04.211Z,67.41
2022-08-17T21:14:51.954Z,66.68
2022-08-17T21:17:41.875Z,66.54
2022-08-17T21:20:23.148Z,66.32
2022-08-17T21:22:59.339Z,66.94
2022-08-17T21:25:44.949Z,67.12
2022-08-17T21:28:20.960Z,67.48
2022-08-17T21:30:55.520Z,67.59
2022-08-17T21:33:31.675Z,67.97
2022-08-17T21:36:24.829Z,68.55
2022-08-17T21:39:14.582Z,68.05
2022-08-17T21:41:52.833Z,67.63
2022-08-17T21:44:31.164Z,66.98
2022-08-17T21:47:15.184Z,67.12
2022-08-17T21:49:43.695Z,67.25
2022-08-17T21:52:14.817Z,66.84
2022-08-17T21:54:44.985Z,67.06
2022-08-17T21:57:17.858Z,67.20
2022-08-17T21:59:52.761Z,67.39
2022-08-17T22:02:23.087Z,67.59
2022-08-17T22:04:58.835Z,67.52
2022-08-17T22:07:39.497Z,67.61
2022-08-17T22:10:11.012Z,68.58
2022-08-17T22:12:39.135Z,68.74
2022-08-17T22:15:10.426Z,68.42
2022-08-17T22:17:42.272Z,68.71
2022-08-17T22:20:14.388Z,68.26
2022-08-17T22:23:24.354Z,68.55
2022-08-17T22:26:00.888Z,69.01
2022-08-17T22:28:41.021Z,69.22
2022-08-17T22:31:11.016Z,68.88
2022-08-17T22:33:46.020Z,69.19
2022-08-17T22:36:22.696Z,70.79
2022-08-17T22:38:53.407Z,72.10
2022-08-17T22:41:32.114Z,73.26
2022-08-17T22:44:02.459Z,74.23
2022-08-17T22:46:31.415Z,73.45
2022-08-17T22:49:00.724Z,73.31
2022-08-17T22:51:30.767Z,73.28
2022-08-17T22:54:19.908Z,72.69
2022-08-17T22:57:14.683Z,73.16
2022-08-17T22:59:51.319Z,73.43
2022-08-17T23:02:26.008Z,73.06
2022-08-17T23:04:57.410Z,73.07
2022-08-17T23:07:25.672Z,73.34
2022-08-17T23:09:55.768Z,72.47
2022-08-17T23:12:26.835Z,73.29
2022-08-17T23:15:00.701Z,72.80
2022-08-17T23:17:33.907Z,73.53
2022-08-17T23:20:06.641Z,73.66
2022-08-17T23:22:34.894Z,72.98
2022-08-17T23:25:05.283Z,73.03
2022-08-17T23:27:33.427Z,72.65
2022-08-17T23:30:01.592Z,73.27
2022-08-17T23:32:29.754Z,73.52
2022-08-17T23:34:59.206Z,73.86
2022-08-17T23:37:28.485Z,73.46
2022-08-17T23:39:56.754Z,73.88
2022-08-17T23:42:26.407Z,74.31
2022-08-17T23:44:55.881Z,74.66
2022-08-17T23:47:24.738Z,74.71
2022-08-17T23:49:54.242Z,74.07
2022-08-17T23:52:28.117Z,74.54
2022-08-17T23:54:57.576Z,74.30
2022-08-17T23:57:33.553Z,74.32
